Terminal Aerodrome Forecast
Issued by NWS

Home | Current Version | Previous Version | Text Only | Print | Product List | Glossary Off
Versions: 1 2 3 4 5 6 7 8 9 10 11 12 13 14 15 16 17 18 19

991
FTUS43 KGRB 181136
TAFAUW
TAF
KAUW 181136Z 1812/1912 03004KT P6SM BKN150
     FM181300 12004KT P6SM SCT015 BKN150
      TEMPO 1813/1815 BKN015
     FM181800 13005KT P6SM BKN120
     FM182200 11005KT P6SM OVC100 PROB30 1900/1906 -SHRA BKN040
      OVC080
     FM190600 11005KT P6SM BKN080=

USA.gov is the U.S. government's official web portal to all federal, state and local government web resources and services.